sensor_id;sensor_type;location;lat;lon;timestamp;P1;durP1;ratioP1;P2;durP2;ratioP2
26750;SDS011;14345;48.272;25.926;2023-03-01T00:00:21;49.80;;;27.90;;
26750;SDS011;14345;48.272;25.926;2023-03-01T00:02:47;48.60;;;29.50;;
26750;SDS011;14345;48.272;25.926;2023-03-01T00:05:13;47.42;;;29.58;;
26750;SDS011;14345;48.272;25.926;2023-03-01T00:07:39;55.28;;;35.60;;
26750;SDS011;14345;48.272;25.926;2023-03-01T00:10:05;58.92;;;37.42;;
26750;SDS011;14345;48.272;25.926;2023-03-01T00:12:31;58.97;;;36.55;;
26750;SDS011;14345;48.272;25.926;2023-03-01T00:14:57;54.90;;;34.85;;
26750;SDS011;14345;48.272;25.926;2023-03-01T00:17:23;54.10;;;34.88;;
26750;SDS011;14345;48.272;25.926;2023-03-01T00:19:49;62.08;;;39.67;;
26750;SDS011;14345;48.272;25.926;2023-03-01T00:22:15;63.88;;;39.85;;
26750;SDS011;14345;48.272;25.926;2023-03-01T00:24:42;57.30;;;36.00;;
26750;SDS011;14345;48.272;25.926;2023-03-01T00:27:07;56.13;;;33.65;;
26750;SDS011;14345;48.272;25.926;2023-03-01T00:29:34;53.28;;;32.65;;
26750;SDS011;14345;48.272;25.926;2023-03-01T00:32:00;49.88;;;30.40;;
26750;SDS011;14345;48.272;25.926;2023-03-01T00:34:26;46.38;;;28.75;;
26750;SDS011;14345;48.272;25.926;2023-03-01T00:36:52;51.60;;;31.02;;
26750;SDS011;14345;48.272;25.926;2023-03-01T00:39:18;48.00;;;29.65;;
26750;SDS011;14345;48.272;25.926;2023-03-01T00:41:44;52.85;;;31.42;;
26750;SDS011;14345;48.272;25.926;2023-03-01T00:44:10;54.97;;;33.65;;
26750;SDS011;14345;48.272;25.926;2023-03-01T00:46:36;53.28;;;31.95;;
26750;SDS011;14345;48.272;25.926;2023-03-01T00:49:02;52.25;;;32.45;;
26750;SDS011;14345;48.272;25.926;2023-03-01T00:51:29;50.22;;;30.70;;
26750;SDS011;14345;48.272;25.926;2023-03-01T00:53:56;53.08;;;31.00;;
26750;SDS011;14345;48.272;25.926;2023-03-01T00:56:23;51.53;;;29.83;;
26750;SDS011;14345;48.272;25.926;2023-03-01T00:58:49;46.17;;;28.40;;
26750;SDS011;14345;48.272;25.926;2023-03-01T01:01:20;47.88;;;28.33;;
26750;SDS011;14345;48.272;25.926;2023-03-01T01:03:56;53.05;;;30.58;;
26750;SDS011;14345;48.272;25.926;2023-03-01T01:06:32;56.58;;;31.73;;
26750;SDS011;14345;48.272;25.926;2023-03-01T01:08:59;46.00;;;27.08;;
26750;SDS011;14345;48.272;25.926;2023-03-01T01:11:26;49.15;;;27.85;;
26750;SDS011;14345;48.272;25.926;2023-03-01T01:13:52;44.00;;;26.40;;
26750;SDS011;14345;48.272;25.926;2023-03-01T01:16:19;43.50;;;24.83;;
26750;SDS011;14345;48.272;25.926;2023-03-01T01:18:45;40.38;;;24.55;;
26750;SDS011;14345;48.272;25.926;2023-03-01T01:21:12;44.55;;;25.55;;
26750;SDS011;14345;48.272;25.926;2023-03-01T04:55:48;58.60;;;35.80;;
26750;SDS011;14345;48.272;25.926;2023-03-01T04:58:14;64.05;;;39.00;;
26750;SDS011;14345;48.272;25.926;2023-03-01T05:00:41;63.17;;;37.38;;
26750;SDS011;14345;48.272;25.926;2023-03-01T05:03:07;67.97;;;39.28;;
26750;SDS011;14345;48.272;25.926;2023-03-01T05:05:37;63.50;;;38.33;;
26750;SDS011;14345;48.272;25.926;2023-03-01T05:08:04;65.63;;;41.25;;
26750;SDS011;14345;48.272;25.926;2023-03-01T05:10:31;69.05;;;40.28;;
26750;SDS011;14345;48.272;25.926;2023-03-01T05:12:58;80.70;;;45.97;;
26750;SDS011;14345;48.272;25.926;2023-03-01T05:15:25;83.57;;;47.80;;
26750;SDS011;14345;48.272;25.926;2023-03-01T05:17:52;91.10;;;54.60;;
26750;SDS011;14345;48.272;25.926;2023-03-01T05:20:19;115.55;;;65.07;;
26750;SDS011;14345;48.272;25.926;2023-03-01T05:22:48;102.88;;;56.35;;
26750;SDS011;14345;48.272;25.926;2023-03-01T05:25:14;93.65;;;51.35;;
26750;SDS011;14345;48.272;25.926;2023-03-01T05:27:40;93.40;;;51.13;;
26750;SDS011;14345;48.272;25.926;2023-03-01T05:30:07;94.32;;;50.33;;
26750;SDS011;14345;48.272;25.926;2023-03-01T05:32:43;87.50;;;47.60;;
26750;SDS011;14345;48.272;25.926;2023-03-01T05:35:10;82.43;;;44.63;;
26750;SDS011;14345;48.272;25.926;2023-03-01T05:37:38;80.63;;;45.35;;
26750;SDS011;14345;48.272;25.926;2023-03-01T05:40:05;74.60;;;42.25;;
26750;SDS011;14345;48.272;25.926;2023-03-01T05:42:32;73.43;;;39.55;;
26750;SDS011;14345;48.272;25.926;2023-03-01T05:44:58;67.22;;;38.47;;
26750;SDS011;14345;48.272;25.926;2023-03-01T05:47:24;67.70;;;37.83;;
26750;SDS011;14345;48.272;25.926;2023-03-01T05:49:50;68.05;;;38.85;;
26750;SDS011;14345;48.272;25.926;2023-03-01T05:52:16;78.60;;;41.92;;
26750;SDS011;14345;48.272;25.926;2023-03-01T05:54:42;75.13;;;42.55;;
26750;SDS011;14345;48.272;25.926;2023-03-01T05:57:08;76.72;;;43.45;;
26750;SDS011;14345;48.272;25.926;2023-03-01T05:59:35;74.47;;;44.13;;
26750;SDS011;14345;48.272;25.926;2023-03-01T06:02:01;88.20;;;50.33;;
26750;SDS011;14345;48.272;25.926;2023-03-01T06:04:27;102.55;;;55.50;;
26750;SDS011;14345;48.272;25.926;2023-03-01T06:06:53;98.00;;;55.42;;
26750;SDS011;14345;48.272;25.926;2023-03-01T06:09:19;81.20;;;47.80;;
26750;SDS011;14345;48.272;25.926;2023-03-01T06:11:45;90.15;;;54.47;;
26750;SDS011;14345;48.272;25.926;2023-03-01T06:14:11;88.18;;;50.58;;
26750;SDS011;14345;48.272;25.926;2023-03-01T06:16:39;82.30;;;49.67;;
26750;SDS011;14345;48.272;25.926;2023-03-01T06:19:05;84.32;;;49.58;;
26750;SDS011;14345;48.272;25.926;2023-03-01T06:21:31;90.65;;;50.92;;
26750;SDS011;14345;48.272;25.926;2023-03-01T06:23:57;104.03;;;59.17;;
26750;SDS011;14345;48.272;25.926;2023-03-01T06:26:23;93.15;;;54.35;;
26750;SDS011;14345;48.272;25.926;2023-03-01T06:28:49;98.30;;;54.22;;
26750;SDS011;14345;48.272;25.926;2023-03-01T06:31:15;99.47;;;54.42;;
26750;SDS011;14345;48.272;25.926;2023-03-01T06:33:42;93.22;;;50.33;;
26750;SDS011;14345;48.272;25.926;2023-03-01T06:36:09;82.88;;;46.97;;
26750;SDS011;14345;48.272;25.926;2023-03-01T06:38:35;83.05;;;43.90;;
26750;SDS011;14345;48.272;25.926;2023-03-01T06:41:01;90.10;;;46.47;;
26750;SDS011;14345;48.272;25.926;2023-03-01T06:43:27;86.72;;;47.78;;
26750;SDS011;14345;48.272;25.926;2023-03-01T06:45:53;90.10;;;47.35;;
26750;SDS011;14345;48.272;25.926;2023-03-01T06:48:19;88.00;;;47.10;;
26750;SDS011;14345;48.272;25.926;2023-03-01T06:50:45;80.53;;;42.53;;
26750;SDS011;14345;48.272;25.926;2023-03-01T06:53:11;85.78;;;46.65;;
26750;SDS011;14345;48.272;25.926;2023-03-01T06:55:37;88.05;;;46.85;;
26750;SDS011;14345;48.272;25.926;2023-03-01T06:58:03;91.53;;;48.70;;
26750;SDS011;14345;48.272;25.926;2023-03-01T07:00:30;95.65;;;48.83;;
26750;SDS011;14345;48.272;25.926;2023-03-01T07:02:59;95.53;;;49.50;;
26750;SDS011;14345;48.272;25.926;2023-03-01T07:05:27;86.82;;;46.72;;
26750;SDS011;14345;48.272;25.926;2023-03-01T07:07:53;83.63;;;44.10;;
26750;SDS011;14345;48.272;25.926;2023-03-01T07:10:20;94.03;;;50.08;;
26750;SDS011;14345;48.272;25.926;2023-03-01T07:12:46;95.97;;;51.78;;
26750;SDS011;14345;48.272;25.926;2023-03-01T07:15:12;88.15;;;49.88;;
26750;SDS011;14345;48.272;25.926;2023-03-01T07:17:39;81.53;;;46.60;;
26750;SDS011;14345;48.272;25.926;2023-03-01T07:20:06;83.22;;;46.83;;
26750;SDS011;14345;48.272;25.926;2023-03-01T07:22:32;76.85;;;45.08;;
26750;SDS011;14345;48.272;25.926;2023-03-01T07:24:58;83.75;;;47.30;;
26750;SDS011;14345;48.272;25.926;2023-03-01T07:27:24;84.57;;;48.00;;
26750;SDS011;14345;48.272;25.926;2023-03-01T07:29:50;79.68;;;45.63;;
26750;SDS011;14345;48.272;25.926;2023-03-01T07:32:16;82.38;;;45.55;;
26750;SDS011;14345;48.272;25.926;2023-03-01T07:34:42;77.60;;;44.83;;
26750;SDS011;14345;48.272;25.926;2023-03-01T07:37:08;70.68;;;41.35;;
26750;SDS011;14345;48.272;25.926;2023-03-01T07:39:34;69.35;;;40.70;;
26750;SDS011;14345;48.272;25.926;2023-03-01T07:42:00;80.90;;;44.85;;
26750;SDS011;14345;48.272;25.926;2023-03-01T07:44:26;68.50;;;41.67;;
26750;SDS011;14345;48.272;25.926;2023-03-01T07:46:53;63.22;;;39.10;;
26750;SDS011;14345;48.272;25.926;2023-03-01T07:49:21;65.43;;;38.92;;
26750;SDS011;14345;48.272;25.926;2023-03-01T07:51:47;62.50;;;36.47;;
26750;SDS011;14345;48.272;25.926;2023-03-01T07:54:13;50.35;;;30.92;;
26750;SDS011;14345;48.272;25.926;2023-03-01T07:56:39;40.33;;;27.13;;
26750;SDS011;14345;48.272;25.926;2023-03-01T07:59:05;38.70;;;26.00;;
26750;SDS011;14345;48.272;25.926;2023-03-01T08:01:31;36.38;;;24.65;;
26750;SDS011;14345;48.272;25.926;2023-03-01T08:03:57;39.22;;;25.02;;
26750;SDS011;14345;48.272;25.926;2023-03-01T08:06:23;37.15;;;24.88;;
26750;SDS011;14345;48.272;25.926;2023-03-01T08:08:49;38.05;;;24.60;;
26750;SDS011;14345;48.272;25.926;2023-03-01T08:11:16;39.70;;;24.85;;
26750;SDS011;14345;48.272;25.926;2023-03-01T08:13:42;36.53;;;23.67;;
26750;SDS011;14345;48.272;25.926;2023-03-01T08:16:12;36.03;;;22.63;;
26750;SDS011;14345;48.272;25.926;2023-03-01T08:18:39;41.17;;;25.73;;
26750;SDS011;14345;48.272;25.926;2023-03-01T08:21:06;45.67;;;28.15;;
26750;SDS011;14345;48.272;25.926;2023-03-01T08:23:32;39.45;;;26.83;;
26750;SDS011;14345;48.272;25.926;2023-03-01T08:28:31;38.60;;;25.10;;
26750;SDS011;14345;48.272;25.926;2023-03-01T08:30:57;45.33;;;28.92;;
26750;SDS011;14345;48.272;25.926;2023-03-01T08:33:23;46.03;;;28.52;;
26750;SDS011;14345;48.272;25.926;2023-03-01T08:35:49;47.08;;;29.35;;
26750;SDS011;14345;48.272;25.926;2023-03-01T08:38:15;43.05;;;28.92;;
26750;SDS011;14345;48.272;25.926;2023-03-01T08:40:41;42.30;;;28.27;;
26750;SDS011;14345;48.272;25.926;2023-03-01T08:43:07;37.88;;;25.10;;
26750;SDS011;14345;48.272;25.926;2023-03-01T08:45:33;37.28;;;24.30;;
26750;SDS011;14345;48.272;25.926;2023-03-01T08:47:59;36.38;;;24.20;;
26750;SDS011;14345;48.272;25.926;2023-03-01T08:50:25;33.95;;;22.35;;
26750;SDS011;14345;48.272;25.926;2023-03-01T08:52:51;36.97;;;25.52;;
26750;SDS011;14345;48.272;25.926;2023-03-01T08:55:17;38.38;;;26.42;;
26750;SDS011;14345;48.272;25.926;2023-03-01T08:57:43;32.33;;;23.27;;
26750;SDS011;14345;48.272;25.926;2023-03-01T09:00:10;33.63;;;20.77;;
26750;SDS011;14345;48.272;25.926;2023-03-01T09:02:36;27.83;;;20.15;;
26750;SDS011;14345;48.272;25.926;2023-03-01T09:05:03;32.05;;;20.88;;
26750;SDS011;14345;48.272;25.926;2023-03-01T09:07:29;35.90;;;21.63;;
26750;SDS011;14345;48.272;25.926;2023-03-01T09:09:55;33.65;;;22.52;;
26750;SDS011;14345;48.272;25.926;2023-03-01T09:12:21;33.45;;;22.40;;
26750;SDS011;14345;48.272;25.926;2023-03-01T09:14:49;41.13;;;26.13;;
26750;SDS011;14345;48.272;25.926;2023-03-01T09:17:15;50.60;;;31.38;;
26750;SDS011;14345;48.272;25.926;2023-03-01T09:19:41;55.42;;;35.30;;
26750;SDS011;14345;48.272;25.926;2023-03-01T09:22:07;54.95;;;36.72;;
26750;SDS011;14345;48.272;25.926;2023-03-01T09:24:33;55.80;;;36.65;;
26750;SDS011;14345;48.272;25.926;2023-03-01T09:26:59;61.08;;;41.13;;
26750;SDS011;14345;48.272;25.926;2023-03-01T09:29:26;62.88;;;41.05;;
26750;SDS011;14345;48.272;25.926;2023-03-01T09:31:52;56.53;;;37.45;;
26750;SDS011;14345;48.272;25.926;2023-03-01T09:34:21;66.22;;;44.05;;
26750;SDS011;14345;48.272;25.926;2023-03-01T09:36:48;73.88;;;46.13;;
26750;SDS011;14345;48.272;25.926;2023-03-01T09:39:15;66.78;;;45.05;;
26750;SDS011;14345;48.272;25.926;2023-03-01T09:42:01;64.07;;;44.08;;
26750;SDS011;14345;48.272;25.926;2023-03-01T09:46:56;74.18;;;47.10;;
26750;SDS011;14345;48.272;25.926;2023-03-01T09:49:27;67.32;;;42.60;;
26750;SDS011;14345;48.272;25.926;2023-03-01T09:54:21;56.63;;;37.95;;
26750;SDS011;14345;48.272;25.926;2023-03-01T09:56:53;63.80;;;43.53;;
26750;SDS011;14345;48.272;25.926;2023-03-01T09:59:41;61.60;;;40.70;;
26750;SDS011;14345;48.272;25.926;2023-03-01T10:04:55;53.67;;;34.72;;
26750;SDS011;14345;48.272;25.926;2023-03-01T10:10:14;53.35;;;36.20;;
26750;SDS011;14345;48.272;25.926;2023-03-01T10:12:42;53.88;;;34.42;;
26750;SDS011;14345;48.272;25.926;2023-03-01T10:15:11;45.05;;;30.35;;
26750;SDS011;14345;48.272;25.926;2023-03-01T10:17:42;35.90;;;24.25;;
26750;SDS011;14345;48.272;25.926;2023-03-01T10:22:39;28.00;;;21.13;;
26750;SDS011;14345;48.272;25.926;2023-03-01T10:25:05;32.63;;;21.92;;
26750;SDS011;14345;48.272;25.926;2023-03-01T10:27:36;30.48;;;21.20;;
26750;SDS011;14345;48.272;25.926;2023-03-01T10:30:19;27.98;;;21.95;;
26750;SDS011;14345;48.272;25.926;2023-03-01T10:32:46;30.45;;;20.98;;
26750;SDS011;14345;48.272;25.926;2023-03-01T10:35:24;25.95;;;19.75;;
26750;SDS011;14345;48.272;25.926;2023-03-01T10:40:23;25.23;;;18.42;;
26750;SDS011;14345;48.272;25.926;2023-03-01T10:42:49;27.23;;;19.17;;
26750;SDS011;14345;48.272;25.926;2023-03-01T10:48:04;25.40;;;19.23;;
26750;SDS011;14345;48.272;25.926;2023-03-01T10:50:30;27.58;;;18.80;;
26750;SDS011;14345;48.272;25.926;2023-03-01T10:53:02;27.63;;;19.88;;
26750;SDS011;14345;48.272;25.926;2023-03-01T10:55:31;30.02;;;21.08;;
26750;SDS011;14345;48.272;25.926;2023-03-01T10:58:06;25.73;;;18.85;;
26750;SDS011;14345;48.272;25.926;2023-03-01T11:00:32;30.10;;;20.65;;
26750;SDS011;14345;48.272;25.926;2023-03-01T11:05:25;28.48;;;19.52;;
26750;SDS011;14345;48.272;25.926;2023-03-01T11:07:56;28.50;;;21.05;;
26750;SDS011;14345;48.272;25.926;2023-03-01T11:12:52;33.72;;;22.88;;
26750;SDS011;14345;48.272;25.926;2023-03-01T11:15:36;31.02;;;22.48;;
26750;SDS011;14345;48.272;25.926;2023-03-01T11:18:02;28.58;;;21.25;;
26750;SDS011;14345;48.272;25.926;2023-03-01T11:20:35;30.50;;;22.45;;
26750;SDS011;14345;48.272;25.926;2023-03-01T11:23:12;34.08;;;23.55;;
26750;SDS011;14345;48.272;25.926;2023-03-01T11:25:39;29.95;;;21.75;;
26750;SDS011;14345;48.272;25.926;2023-03-01T11:28:07;23.65;;;17.67;;
26750;SDS011;14345;48.272;25.926;2023-03-01T11:30:38;24.52;;;17.23;;
26750;SDS011;14345;48.272;25.926;2023-03-01T11:35:50;19.05;;;14.85;;
26750;SDS011;14345;48.272;25.926;2023-03-01T11:38:24;20.08;;;16.30;;
26750;SDS011;14345;48.272;25.926;2023-03-01T11:41:02;17.25;;;14.07;;
26750;SDS011;14345;48.272;25.926;2023-03-01T11:43:37;18.52;;;14.93;;
26750;SDS011;14345;48.272;25.926;2023-03-01T11:49:01;15.95;;;13.55;;
26750;SDS011;14345;48.272;25.926;2023-03-01T11:56:32;17.23;;;14.15;;
26750;SDS011;14345;48.272;25.926;2023-03-01T12:33:08;17.38;;;13.30;;
26750;SDS011;14345;48.272;25.926;2023-03-01T12:38:08;15.93;;;12.45;;
26750;SDS011;14345;48.272;25.926;2023-03-01T12:43:17;22.83;;;15.38;;
26750;SDS011;14345;48.272;25.926;2023-03-01T12:45:54;16.63;;;13.85;;
26750;SDS011;14345;48.272;25.926;2023-03-01T12:51:05;15.13;;;13.40;;
26750;SDS011;14345;48.272;25.926;2023-03-01T12:53:34;16.55;;;14.00;;
26750;SDS011;14345;48.272;25.926;2023-03-01T12:56:11;17.95;;;14.02;;
26750;SDS011;14345;48.272;25.926;2023-03-01T13:11:23;17.83;;;13.98;;
26750;SDS011;14345;48.272;25.926;2023-03-01T13:13:49;18.42;;;14.02;;
26750;SDS011;14345;48.272;25.926;2023-03-01T13:21:32;15.90;;;12.70;;
26750;SDS011;14345;48.272;25.926;2023-03-01T13:23:58;15.48;;;12.73;;
26750;SDS011;14345;48.272;25.926;2023-03-01T13:26:25;15.77;;;12.80;;
26750;SDS011;14345;48.272;25.926;2023-03-01T13:28:52;13.30;;;11.45;;
26750;SDS011;14345;48.272;25.926;2023-03-01T13:33:48;15.38;;;12.80;;
26750;SDS011;14345;48.272;25.926;2023-03-01T13:39:04;14.98;;;12.40;;
26750;SDS011;14345;48.272;25.926;2023-03-01T13:44:24;17.95;;;12.43;;
26750;SDS011;14345;48.272;25.926;2023-03-01T13:49:41;15.60;;;12.40;;
26750;SDS011;14345;48.272;25.926;2023-03-01T13:52:27;15.13;;;12.38;;
26750;SDS011;14345;48.272;25.926;2023-03-01T13:54:53;17.27;;;13.30;;
26750;SDS011;14345;48.272;25.926;2023-03-01T13:57:20;16.55;;;12.63;;
26750;SDS011;14345;48.272;25.926;2023-03-01T13:59:47;15.70;;;12.70;;
26750;SDS011;14345;48.272;25.926;2023-03-01T14:02:13;16.13;;;13.10;;
26750;SDS011;14345;48.272;25.926;2023-03-01T14:04:40;17.08;;;13.38;;
26750;SDS011;14345;48.272;25.926;2023-03-01T14:09:40;18.23;;;14.55;;
26750;SDS011;14345;48.272;25.926;2023-03-01T14:12:15;21.58;;;15.48;;
26750;SDS011;14345;48.272;25.926;2023-03-01T14:19:45;17.98;;;14.07;;
26750;SDS011;14345;48.272;25.926;2023-03-01T14:24:38;15.90;;;13.23;;
26750;SDS011;14345;48.272;25.926;2023-03-01T14:27:09;17.45;;;14.38;;
26750;SDS011;14345;48.272;25.926;2023-03-01T14:29:38;18.85;;;13.73;;
26750;SDS011;14345;48.272;25.926;2023-03-01T14:32:20;14.90;;;12.30;;
26750;SDS011;14345;48.272;25.926;2023-03-01T14:34:47;13.18;;;10.98;;
26750;SDS011;14345;48.272;25.926;2023-03-01T14:37:24;16.23;;;12.38;;
26750;SDS011;14345;48.272;25.926;2023-03-01T14:39:51;16.27;;;12.95;;
26750;SDS011;14345;48.272;25.926;2023-03-01T14:42:17;18.50;;;14.15;;
26750;SDS011;14345;48.272;25.926;2023-03-01T14:44:47;16.90;;;13.07;;
26750;SDS011;14345;48.272;25.926;2023-03-01T14:47:22;19.25;;;15.02;;
26750;SDS011;14345;48.272;25.926;2023-03-01T14:49:50;17.13;;;14.50;;
26750;SDS011;14345;48.272;25.926;2023-03-01T14:52:23;18.15;;;14.02;;
26750;SDS011;14345;48.272;25.926;2023-03-01T14:54:52;18.10;;;13.60;;
26750;SDS011;14345;48.272;25.926;2023-03-01T14:57:19;19.88;;;14.65;;
26750;SDS011;14345;48.272;25.926;2023-03-01T14:59:49;23.23;;;16.70;;
26750;SDS011;14345;48.272;25.926;2023-03-01T15:02:18;21.55;;;15.65;;
26750;SDS011;14345;48.272;25.926;2023-03-01T15:04:46;21.67;;;15.45;;
26750;SDS011;14345;48.272;25.926;2023-03-01T15:07:13;23.00;;;16.48;;
26750;SDS011;14345;48.272;25.926;2023-03-01T15:09:40;21.23;;;14.93;;
26750;SDS011;14345;48.272;25.926;2023-03-01T15:14:51;25.20;;;16.00;;
26750;SDS011;14345;48.272;25.926;2023-03-01T15:17:19;25.30;;;16.42;;
26750;SDS011;14345;48.272;25.926;2023-03-01T15:19:46;24.95;;;16.60;;
26750;SDS011;14345;48.272;25.926;2023-03-01T15:22:15;25.38;;;17.33;;
26750;SDS011;14345;48.272;25.926;2023-03-01T15:24:45;22.48;;;15.30;;
26750;SDS011;14345;48.272;25.926;2023-03-01T15:27:14;23.75;;;15.80;;
26750;SDS011;14345;48.272;25.926;2023-03-01T15:29:41;22.33;;;15.52;;
26750;SDS011;14345;48.272;25.926;2023-03-01T15:32:24;23.58;;;16.40;;
26750;SDS011;14345;48.272;25.926;2023-03-01T15:34:50;26.88;;;17.98;;
26750;SDS011;14345;48.272;25.926;2023-03-01T15:37:38;26.05;;;16.92;;
26750;SDS011;14345;48.272;25.926;2023-03-01T15:40:17;24.42;;;16.92;;
26750;SDS011;14345;48.272;25.926;2023-03-01T15:42:43;29.60;;;19.13;;
26750;SDS011;14345;48.272;25.926;2023-03-01T15:47:52;29.73;;;18.95;;
26750;SDS011;14345;48.272;25.926;2023-03-01T15:50:20;32.33;;;19.58;;
26750;SDS011;14345;48.272;25.926;2023-03-01T15:52:47;29.77;;;20.77;;
26750;SDS011;14345;48.272;25.926;2023-03-01T15:57:45;26.60;;;18.50;;
26750;SDS011;14345;48.272;25.926;2023-03-01T16:00:12;31.63;;;20.45;;
26750;SDS011;14345;48.272;25.926;2023-03-01T16:02:39;27.95;;;18.75;;
26750;SDS011;14345;48.272;25.926;2023-03-01T16:05:05;28.23;;;19.30;;
26750;SDS011;14345;48.272;25.926;2023-03-01T16:07:32;29.83;;;19.58;;
26750;SDS011;14345;48.272;25.926;2023-03-01T16:09:58;28.80;;;19.77;;
26750;SDS011;14345;48.272;25.926;2023-03-01T16:12:24;30.25;;;20.80;;
26750;SDS011;14345;48.272;25.926;2023-03-01T16:14:52;30.83;;;20.45;;
26750;SDS011;14345;48.272;25.926;2023-03-01T16:17:18;31.55;;;20.77;;
26750;SDS011;14345;48.272;25.926;2023-03-01T16:19:44;34.90;;;22.33;;
26750;SDS011;14345;48.272;25.926;2023-03-01T16:22:10;34.33;;;21.58;;
26750;SDS011;14345;48.272;25.926;2023-03-01T16:24:36;33.25;;;21.63;;
26750;SDS011;14345;48.272;25.926;2023-03-01T16:27:03;28.05;;;18.60;;
26750;SDS011;14345;48.272;25.926;2023-03-01T16:29:29;31.90;;;21.17;;
26750;SDS011;14345;48.272;25.926;2023-03-01T16:31:55;32.70;;;21.15;;
26750;SDS011;14345;48.272;25.926;2023-03-01T16:34:21;36.40;;;23.77;;
26750;SDS011;14345;48.272;25.926;2023-03-01T16:36:48;40.55;;;24.15;;
26750;SDS011;14345;48.272;25.926;2023-03-01T16:39:14;44.05;;;26.58;;
26750;SDS011;14345;48.272;25.926;2023-03-01T16:41:41;41.20;;;24.88;;
26750;SDS011;14345;48.272;25.926;2023-03-01T16:44:07;38.33;;;24.55;;
26750;SDS011;14345;48.272;25.926;2023-03-01T16:46:33;39.92;;;24.92;;
26750;SDS011;14345;48.272;25.926;2023-03-01T16:48:59;36.45;;;24.50;;
26750;SDS011;14345;48.272;25.926;2023-03-01T16:51:25;37.53;;;23.77;;
26750;SDS011;14345;48.272;25.926;2023-03-01T16:53:51;38.33;;;24.27;;
26750;SDS011;14345;48.272;25.926;2023-03-01T16:56:18;38.65;;;23.98;;
26750;SDS011;14345;48.272;25.926;2023-03-01T16:58:44;42.33;;;25.88;;
26750;SDS011;14345;48.272;25.926;2023-03-01T17:01:15;42.80;;;24.85;;
26750;SDS011;14345;48.272;25.926;2023-03-01T17:03:41;38.33;;;24.35;;
26750;SDS011;14345;48.272;25.926;2023-03-01T17:06:08;39.03;;;25.20;;
26750;SDS011;14345;48.272;25.926;2023-03-01T17:08:35;46.88;;;28.52;;
26750;SDS011;14345;48.272;25.926;2023-03-01T17:11:05;43.60;;;26.10;;
26750;SDS011;14345;48.272;25.926;2023-03-01T17:13:31;43.50;;;26.75;;
26750;SDS011;14345;48.272;25.926;2023-03-01T17:15:59;52.20;;;30.05;;
26750;SDS011;14345;48.272;25.926;2023-03-01T17:18:25;43.45;;;25.02;;
26750;SDS011;14345;48.272;25.926;2023-03-01T17:20:51;46.03;;;27.38;;
26750;SDS011;14345;48.272;25.926;2023-03-01T17:23:17;45.63;;;26.35;;
26750;SDS011;14345;48.272;25.926;2023-03-01T17:25:43;50.95;;;26.70;;
26750;SDS011;14345;48.272;25.926;2023-03-01T17:28:10;44.80;;;26.00;;
26750;SDS011;14345;48.272;25.926;2023-03-01T17:30:36;47.30;;;27.35;;
26750;SDS011;14345;48.272;25.926;2023-03-01T17:33:02;42.90;;;24.95;;
26750;SDS011;14345;48.272;25.926;2023-03-01T17:35:28;38.00;;;22.73;;
26750;SDS011;14345;48.272;25.926;2023-03-01T17:37:54;37.22;;;23.73;;
26750;SDS011;14345;48.272;25.926;2023-03-01T17:40:20;36.63;;;23.10;;
26750;SDS011;14345;48.272;25.926;2023-03-01T17:42:46;35.20;;;22.27;;
26750;SDS011;14345;48.272;25.926;2023-03-01T17:45:12;31.60;;;20.95;;
26750;SDS011;14345;48.272;25.926;2023-03-01T17:47:38;37.72;;;21.88;;
26750;SDS011;14345;48.272;25.926;2023-03-01T17:50:04;33.30;;;21.80;;
26750;SDS011;14345;48.272;25.926;2023-03-01T17:52:32;35.42;;;22.50;;
26750;SDS011;14345;48.272;25.926;2023-03-01T17:54:58;31.42;;;20.80;;
26750;SDS011;14345;48.272;25.926;2023-03-01T17:57:24;28.58;;;19.02;;
26750;SDS011;14345;48.272;25.926;2023-03-01T17:59:50;32.10;;;20.95;;
26750;SDS011;14345;48.272;25.926;2023-03-01T18:02:16;32.70;;;19.70;;
26750;SDS011;14345;48.272;25.926;2023-03-01T18:04:43;38.15;;;21.45;;
26750;SDS011;14345;48.272;25.926;2023-03-01T18:07:09;29.63;;;20.05;;
26750;SDS011;14345;48.272;25.926;2023-03-01T18:09:35;31.88;;;20.42;;
26750;SDS011;14345;48.272;25.926;2023-03-01T18:12:01;32.17;;;20.45;;
26750;SDS011;14345;48.272;25.926;2023-03-01T18:14:27;29.05;;;19.52;;
26750;SDS011;14345;48.272;25.926;2023-03-01T18:16:58;31.10;;;20.40;;
26750;SDS011;14345;48.272;25.926;2023-03-01T18:19:26;34.78;;;20.75;;
26750;SDS011;14345;48.272;25.926;2023-03-01T18:21:53;33.40;;;21.33;;
26750;SDS011;14345;48.272;25.926;2023-03-01T18:24:19;33.28;;;19.83;;
26750;SDS011;14345;48.272;25.926;2023-03-01T18:26:45;31.60;;;19.67;;
26750;SDS011;14345;48.272;25.926;2023-03-01T18:29:11;33.72;;;20.60;;
26750;SDS011;14345;48.272;25.926;2023-03-01T18:31:37;31.00;;;19.73;;
26750;SDS011;14345;48.272;25.926;2023-03-01T18:34:04;34.67;;;21.70;;
26750;SDS011;14345;48.272;25.926;2023-03-01T18:36:31;39.08;;;23.70;;
26750;SDS011;14345;48.272;25.926;2023-03-01T18:38:57;38.40;;;23.73;;
26750;SDS011;14345;48.272;25.926;2023-03-01T18:41:24;41.95;;;25.88;;
26750;SDS011;14345;48.272;25.926;2023-03-01T18:43:51;42.35;;;26.35;;
26750;SDS011;14345;48.272;25.926;2023-03-01T18:46:17;37.47;;;23.33;;
26750;SDS011;14345;48.272;25.926;2023-03-01T18:48:44;36.50;;;22.58;;
26750;SDS011;14345;48.272;25.926;2023-03-01T18:51:11;34.97;;;22.42;;
26750;SDS011;14345;48.272;25.926;2023-03-01T18:53:38;33.30;;;21.77;;
26750;SDS011;14345;48.272;25.926;2023-03-01T18:56:04;35.65;;;21.60;;
26750;SDS011;14345;48.272;25.926;2023-03-01T18:58:30;34.80;;;21.08;;
26750;SDS011;14345;48.272;25.926;2023-03-01T19:00:57;31.35;;;20.30;;
26750;SDS011;14345;48.272;25.926;2023-03-01T19:03:25;33.65;;;20.33;;
26750;SDS011;14345;48.272;25.926;2023-03-01T19:05:53;36.83;;;21.77;;
26750;SDS011;14345;48.272;25.926;2023-03-01T19:08:19;37.15;;;20.38;;
26750;SDS011;14345;48.272;25.926;2023-03-01T19:10:45;34.78;;;20.77;;
26750;SDS011;14345;48.272;25.926;2023-03-01T19:13:11;36.20;;;21.58;;
26750;SDS011;14345;48.272;25.926;2023-03-01T19:15:37;33.15;;;19.90;;
26750;SDS011;14345;48.272;25.926;2023-03-01T19:18:03;31.85;;;20.02;;
26750;SDS011;14345;48.272;25.926;2023-03-01T19:20:30;29.20;;;18.40;;
26750;SDS011;14345;48.272;25.926;2023-03-01T19:22:56;28.88;;;19.15;;
26750;SDS011;14345;48.272;25.926;2023-03-01T19:25:22;30.88;;;18.52;;
26750;SDS011;14345;48.272;25.926;2023-03-01T19:27:48;29.77;;;18.35;;
26750;SDS011;14345;48.272;25.926;2023-03-01T19:30:14;28.92;;;17.40;;
26750;SDS011;14345;48.272;25.926;2023-03-01T19:32:40;27.05;;;17.17;;
26750;SDS011;14345;48.272;25.926;2023-03-01T19:35:06;27.33;;;17.67;;
26750;SDS011;14345;48.272;25.926;2023-03-01T19:37:33;29.42;;;18.23;;
26750;SDS011;14345;48.272;25.926;2023-03-01T19:39:59;33.50;;;20.05;;
26750;SDS011;14345;48.272;25.926;2023-03-01T19:42:25;32.65;;;19.73;;
26750;SDS011;14345;48.272;25.926;2023-03-01T19:44:52;38.95;;;22.33;;
26750;SDS011;14345;48.272;25.926;2023-03-01T19:47:18;34.65;;;22.02;;